Time;durP1;ratioP1;P1;durP2;ratioP2;P2;SDS_P1;SDS_P2;PMS_P1;PMS_P2;Temp;Humidity;BMP_temperature;BMP_pressure;BME280_temperature;BME280_humidity;BME280_pressure;Samples;Min_cycle;Max_cycle;Signal;HPM_P1;HPM_P2
2021/04/17 00:01:58;;;;;;;10.73;5.65;;;5.20;93.50;;;;;;5041416;28;20483;-69
2021/04/17 00:04:28;;;;;;;8.57;4.70;;;5.30;93.30;;;;;;5044333;28;20064;-69
2021/04/17 00:06:54;;;;;;;10.40;5.15;;;5.40;93.20;;;;;;5031355;28;20056;-69
2021/04/17 00:09:26;;;;;;;9.57;5.05;;;5.50;93.10;;;;;;5031074;28;20052;-69
2021/04/17 00:11:53;;;;;;;8.32;4.38;;;5.50;93.00;;;;;;5034650;28;20116;-68
2021/04/17 00:14:24;;;;;;;9.20;5.40;;;5.50;92.90;;;;;;5031233;28;20013;-69
2021/04/17 00:16:50;;;;;;;9.10;5.13;;;5.50;92.80;;;;;;5031314;28;20029;-69
2021/04/17 00:19:16;;;;;;;8.38;4.55;;;5.70;92.40;;;;;;5039274;28;20083;-69
2021/04/17 00:21:41;;;;;;;8.52;4.72;;;5.80;92.10;;;;;;5045191;28;20029;-68
2021/04/17 00:24:07;;;;;;;10.48;6.25;;;5.90;92.00;;;;;;5044589;28;20036;-69
2021/04/17 00:26:34;;;;;;;8.10;4.43;;;5.90;91.90;;;;;;5030873;28;20029;-69
2021/04/17 00:29:02;;;;;;;9.68;5.05;;;5.80;92.30;;;;;;5030880;28;20053;-69
2021/04/17 00:31:28;;;;;;;9.38;5.22;;;5.50;93.00;;;;;;5030894;28;20369;-69
2021/04/17 00:33:53;;;;;;;9.75;5.00;;;5.30;93.50;;;;;;5031555;28;20072;-69
2021/04/17 00:36:19;;;;;;;8.93;4.93;;;5.10;94.00;;;;;;5040500;28;20111;-68
2021/04/17 00:38:45;;;;;;;7.95;4.85;;;5.20;93.60;;;;;;5031146;28;20040;-69
2021/04/17 00:41:10;;;;;;;8.30;4.57;;;5.30;93.40;;;;;;5033390;28;20039;-69
2021/04/17 00:43:36;;;;;;;11.77;5.28;;;5.30;93.60;;;;;;5034488;28;20025;-69
2021/04/17 00:46:02;;;;;;;9.05;5.57;;;5.30;93.50;;;;;;5034558;28;20025;-69
2021/04/17 00:48:28;;;;;;;9.50;5.10;;;5.30;93.40;;;;;;5034026;28;20048;-69
2021/04/17 00:50:54;;;;;;;7.28;4.45;;;5.40;93.20;;;;;;5034303;28;20433;-69
2021/04/17 00:53:20;;;;;;;7.43;4.90;;;5.30;93.60;;;;;;5047273;28;20021;-69
2021/04/17 00:55:46;;;;;;;9.90;5.20;;;5.20;93.80;;;;;;5052438;28;20040;-69
2021/04/17 00:58:12;;;;;;;12.82;5.13;;;5.20;93.90;;;;;;5052153;28;20033;-69
2021/04/17 01:00:38;;;;;;;7.05;4.15;;;5.30;93.70;;;;;;5052388;28;20028;-69
2021/04/17 01:03:16;;;;;;;8.93;4.32;;;5.20;93.70;;;;;;5054326;28;20032;-70
2021/04/17 01:05:43;;;;;;;10.95;4.40;;;5.20;93.90;;;;;;5053274;28;20075;-69
2021/04/17 01:08:19;;;;;;;7.97;4.43;;;5.10;93.90;;;;;;5050983;28;20449;-70
2021/04/17 01:10:52;;;;;;;8.68;4.78;;;5.10;94.00;;;;;;5036697;28;20076;-69
2021/04/17 01:13:19;;;;;;;15.03;5.57;;;5.00;94.40;;;;;;5042787;28;20061;-69
2021/04/17 01:15:46;;;;;;;11.63;4.85;;;5.00;94.50;;;;;;5049917;28;20272;-69
2021/04/17 01:18:13;;;;;;;8.02;4.40;;;4.90;94.80;;;;;;5034034;28;20033;-69
2021/04/17 01:20:46;;;;;;;7.22;4.82;;;4.80;94.70;;;;;;5035921;28;20065;-68
2021/04/17 01:23:39;;;;;;;8.48;5.03;;;4.80;94.90;;;;;;5053817;28;20395;-69
2021/04/17 01:26:16;;;;;;;12.65;6.10;;;4.80;94.80;;;;;;5040300;28;20044;-70
2021/04/17 01:28:44;;;;;;;8.23;4.65;;;5.00;94.60;;;;;;5033434;28;20048;-69
2021/04/17 01:31:14;;;;;;;11.10;5.10;;;4.90;94.70;;;;;;5045319;28;20033;-69
2021/04/17 01:33:46;;;;;;;10.65;4.95;;;4.90;94.80;;;;;;5053312;28;20159;-69
2021/04/17 01:36:14;;;;;;;9.88;4.15;;;5.00;94.60;;;;;;5051488;28;20391;-68
2021/04/17 01:38:46;;;;;;;9.77;5.20;;;5.00;94.60;;;;;;5052937;28;20046;-69
2021/04/17 01:41:17;;;;;;;8.25;4.00;;;5.00;94.70;;;;;;5035627;28;20033;-69
2021/04/17 01:43:48;;;;;;;8.90;4.97;;;5.10;94.40;;;;;;5041428;28;20029;-69
2021/04/17 01:46:20;;;;;;;9.40;4.80;;;5.00;94.60;;;;;;5037321;28;20384;-69
2021/04/17 01:48:51;;;;;;;8.27;4.97;;;4.90;94.90;;;;;;5033254;28;20032;-69
2021/04/17 01:51:18;;;;;;;10.88;5.45;;;4.80;95.20;;;;;;5033152;28;20144;-69
2021/04/17 01:53:45;;;;;;;8.05;4.80;;;4.80;95.20;;;;;;5032718;28;20029;-68
2021/04/17 01:56:13;;;;;;;8.57;4.63;;;5.30;94.10;;;;;;5048505;28;20498;-69
2021/04/17 01:58:42;;;;;;;12.23;5.18;;;5.40;93.80;;;;;;5033133;28;20434;-69
2021/04/17 02:01:08;;;;;;;8.10;4.80;;;5.40;93.90;;;;;;5036331;28;20017;-69
2021/04/17 02:03:35;;;;;;;7.70;4.55;;;5.40;94.00;;;;;;5033013;28;20104;-69
2021/04/17 02:06:01;;;;;;;8.55;5.05;;;5.20;94.30;;;;;;5048644;28;20021;-69
2021/04/17 02:08:27;;;;;;;9.98;4.80;;;5.10;94.50;;;;;;5034764;28;20053;-69
2021/04/17 02:10:52;;;;;;;8.35;4.68;;;5.10;94.60;;;;;;5032760;28;20133;-69
2021/04/17 02:13:19;;;;;;;11.65;5.13;;;4.80;95.30;;;;;;5032739;28;20037;-68
2021/04/17 02:15:46;;;;;;;8.02;4.22;;;4.80;94.90;;;;;;5040190;28;20025;-68
2021/04/17 02:18:26;;;;;;;9.13;5.05;;;4.70;95.30;;;;;;5045417;28;20030;-69
2021/04/17 02:21:02;;;;;;;8.50;4.60;;;4.80;95.00;;;;;;5051309;28;20586;-69
2021/04/17 02:23:29;;;;;;;16.50;5.03;;;4.80;95.20;;;;;;5040454;28;20051;-69
2021/04/17 02:25:58;;;;;;;11.18;5.07;;;4.60;95.50;;;;;;5032680;28;20483;-68
2021/04/17 02:28:28;;;;;;;9.52;4.45;;;4.90;94.60;;;;;;5032577;28;20044;-69
2021/04/17 02:30:55;;;;;;;8.45;5.10;;;4.50;95.70;;;;;;5035528;28;20041;-69
2021/04/17 02:33:22;;;;;;;7.57;4.72;;;4.60;95.50;;;;;;5052380;28;20480;-69
2021/04/17 02:35:47;;;;;;;7.60;4.35;;;4.50;95.90;;;;;;5034938;28;20120;-69
2021/04/17 02:38:14;;;;;;;12.18;6.22;;;4.40;96.00;;;;;;5032350;28;20104;-69
2021/04/17 02:40:40;;;;;;;8.02;4.45;;;4.30;96.60;;;;;;5031890;28;20421;-69
2021/04/17 02:43:05;;;;;;;11.25;5.20;;;4.10;97.30;;;;;;5032417;28;20022;-69
2021/04/17 02:45:31;;;;;;;7.80;4.60;;;3.90;97.70;;;;;;5031974;28;20369;-69
2021/04/17 02:47:57;;;;;;;8.75;4.88;;;4.10;97.10;;;;;;5032171;28;20029;-70
2021/04/17 02:50:23;;;;;;;10.80;5.10;;;4.00;97.40;;;;;;5032430;28;20029;-69
2021/04/17 02:52:49;;;;;;;7.72;4.35;;;4.10;97.30;;;;;;5031632;28;20388;-69
2021/04/17 02:55:16;;;;;;;8.07;4.82;;;4.10;97.30;;;;;;5042521;28;20029;-68
2021/04/17 02:57:42;;;;;;;8.77;4.70;;;4.00;97.70;;;;;;5051108;28;20029;-69
2021/04/17 03:00:11;;;;;;;8.05;4.72;;;4.00;97.40;;;;;;5042831;28;20029;-68
2021/04/17 03:02:37;;;;;;;7.57;4.15;;;4.30;96.50;;;;;;5028240;28;20032;-69
2021/04/17 03:05:04;;;;;;;8.32;4.57;;;4.90;95.20;;;;;;5034781;28;20500;-69
2021/04/17 03:07:30;;;;;;;7.40;4.15;;;4.30;96.60;;;;;;5024530;28;20460;-70
2021/04/17 03:09:56;;;;;;;10.55;5.10;;;4.40;96.40;;;;;;5038965;28;20033;-70
2021/04/17 03:12:21;;;;;;;9.75;5.15;;;4.10;96.90;;;;;;5024352;28;20518;-70
2021/04/17 03:14:47;;;;;;;7.40;3.92;;;4.00;97.10;;;;;;5023938;28;20031;-70
2021/04/17 03:17:14;;;;;;;9.15;5.20;;;4.00;97.10;;;;;;5024572;28;20040;-70
2021/04/17 03:19:41;;;;;;;7.88;4.20;;;3.90;97.20;;;;;;5040265;28;20017;-70
2021/04/17 03:22:07;;;;;;;7.18;4.03;;;3.90;97.30;;;;;;5043522;28;20428;-70
2021/04/17 03:24:34;;;;;;;10.45;5.28;;;3.90;97.20;;;;;;5043147;28;20116;-69
2021/04/17 03:27:01;;;;;;;8.40;4.25;;;3.90;97.50;;;;;;5024875;28;20036;-70
2021/04/17 03:29:27;;;;;;;9.10;4.88;;;3.80;97.60;;;;;;5036288;28;20545;-69
2021/04/17 03:31:52;;;;;;;8.73;4.68;;;3.80;97.50;;;;;;5029539;28;20045;-69
2021/04/17 03:34:18;;;;;;;10.20;4.80;;;3.60;98.30;;;;;;5024448;28;20018;-70
2021/04/17 03:36:44;;;;;;;7.93;4.15;;;3.50;98.70;;;;;;5024540;28;20057;-70
2021/04/17 03:39:10;;;;;;;9.73;4.50;;;3.40;98.90;;;;;;5024618;28;20025;-69
2021/04/17 03:41:36;;;;;;;9.20;4.78;;;3.30;99.30;;;;;;5040885;28;20978;-70
2021/04/17 03:44:03;;;;;;;11.45;4.75;;;3.60;98.30;;;;;;5033375;28;20503;-70
2021/04/17 03:46:28;;;;;;;8.18;4.35;;;3.60;98.40;;;;;;5042788;28;20036;-69
2021/04/17 03:48:54;;;;;;;7.57;4.25;;;3.50;98.60;;;;;;5030395;28;20029;-69
2021/04/17 03:51:20;;;;;;;7.05;4.13;;;3.40;98.90;;;;;;5024057;28;20041;-69
2021/04/17 03:53:46;;;;;;;8.13;4.43;;;3.50;98.50;;;;;;5024190;28;20055;-70
2021/04/17 03:56:12;;;;;;;8.75;5.07;;;3.50;98.60;;;;;;5030405;28;20112;-69
2021/04/17 03:58:38;;;;;;;10.18;4.65;;;3.30;99.20;;;;;;5023737;28;20029;-70
2021/04/17 04:01:04;;;;;;;11.70;4.35;;;3.30;99.30;;;;;;5043133;28;20033;-70
2021/04/17 04:03:29;;;;;;;8.13;4.20;;;3.40;98.80;;;;;;5041264;28;20025;-70
2021/04/17 04:05:55;;;;;;;7.43;3.85;;;3.60;98.50;;;;;;5024334;28;20568;-69
2021/04/17 04:08:21;;;;;;;7.68;4.00;;;3.40;99.30;;;;;;5023070;28;20073;-70
2021/04/17 04:10:46;;;;;;;8.02;4.47;;;3.30;99.20;;;;;;5042648;28;20045;-69
2021/04/17 04:13:12;;;;;;;7.15;4.13;;;3.40;98.90;;;;;;5042887;28;20051;-70
2021/04/17 04:15:38;;;;;;;7.25;4.47;;;3.40;98.60;;;;;;5026520;28;20095;-70
2021/04/17 04:18:04;;;;;;;6.38;3.80;;;3.50;98.30;;;;;;5047380;28;20142;-69
2021/04/17 04:20:30;;;;;;;9.50;4.60;;;3.30;98.90;;;;;;5030332;28;20017;-70
2021/04/17 04:22:55;;;;;;;9.48;4.13;;;3.40;98.70;;;;;;5044312;28;20066;-69
2021/04/17 04:25:21;;;;;;;7.88;4.18;;;3.40;98.90;;;;;;5046487;28;20024;-69
2021/04/17 04:27:47;;;;;;;8.25;4.07;;;3.30;99.10;;;;;;5048010;28;20022;-69
2021/04/17 04:30:13;;;;;;;10.07;3.70;;;3.10;99.90;;;;;;5038620;28;20533;-69
2021/04/17 04:32:39;;;;;;;6.43;4.03;;;3.20;99.60;;;;;;5042180;28;20048;-70
2021/04/17 04:35:06;;;;;;;9.02;4.43;;;3.10;99.70;;;;;;5027839;28;20025;-69
2021/04/17 04:37:32;;;;;;;7.32;3.50;;;3.30;99.30;;;;;;5027297;28;20025;-70
2021/04/17 04:39:58;;;;;;;8.77;4.28;;;3.30;99.30;;;;;;5027293;28;20017;-69
2021/04/17 04:42:23;;;;;;;6.72;3.72;;;3.20;99.40;;;;;;5035637;28;20047;-70
2021/04/17 04:44:49;;;;;;;7.35;3.47;;;3.20;99.20;;;;;;5028859;28;20029;-69
2021/04/17 04:47:15;;;;;;;6.88;4.13;;;3.20;99.00;;;;;;5047380;28;20403;-70
2021/04/17 04:49:41;;;;;;;7.95;3.65;;;3.20;99.20;;;;;;5026899;28;20482;-69
2021/04/17 04:52:06;;;;;;;6.18;3.55;;;3.20;99.20;;;;;;5027162;28;20530;-70
2021/04/17 04:54:32;;;;;;;7.50;3.63;;;3.30;98.90;;;;;;5026971;28;20017;-69
2021/04/17 04:56:58;;;;;;;8.65;3.92;;;3.40;98.70;;;;;;5026993;28;20484;-69
2021/04/17 04:59:23;;;;;;;7.03;3.42;;;3.40;98.60;;;;;;5027288;28;20079;-70
2021/04/17 05:01:49;;;;;;;7.20;3.65;;;3.40;98.80;;;;;;5027156;28;20143;-70
2021/04/17 05:04:15;;;;;;;7.35;3.78;;;3.20;99.00;;;;;;5027290;28;20021;-69
2021/04/17 05:06:41;;;;;;;7.22;3.20;;;3.20;99.50;;;;;;5026212;28;20080;-69
2021/04/17 05:09:06;;;;;;;5.00;3.13;;;3.30;99.40;;;;;;5033253;28;20541;-69
2021/04/17 05:11:33;;;;;;;6.45;3.78;;;3.40;99.20;;;;;;5045036;28;20139;-69
2021/04/17 05:13:59;;;;;;;6.78;3.70;;;3.50;98.70;;;;;;5039677;28;20079;-70
2021/04/17 05:16:25;;;;;;;7.43;3.25;;;3.60;98.50;;;;;;5032803;28;20029;-71
2021/04/17 05:18:51;;;;;;;8.65;3.15;;;3.60;98.40;;;;;;5040625;28;20033;-70
2021/04/17 05:21:17;;;;;;;5.78;3.05;;;3.70;97.80;;;;;;5026609;28;20127;-69
2021/04/17 05:23:42;;;;;;;5.47;2.88;;;3.70;98.10;;;;;;5041684;28;20037;-69
2021/04/17 05:26:08;;;;;;;8.82;3.28;;;3.80;97.20;;;;;;5027505;28;20087;-69
2021/04/17 05:28:34;;;;;;;6.85;2.97;;;3.90;96.80;;;;;;5025578;28;20033;-69
2021/04/17 05:30:59;;;;;;;7.13;3.92;;;3.90;97.20;;;;;;5029715;28;20037;-69
2021/04/17 05:33:25;;;;;;;5.82;3.22;;;4.00;96.90;;;;;;5034476;28;20025;-69
2021/04/17 05:35:51;;;;;;;5.28;2.58;;;4.10;96.40;;;;;;5030207;28;20416;-69
2021/04/17 05:38:17;;;;;;;6.82;3.10;;;4.00;96.40;;;;;;5044763;28;20471;-69
2021/04/17 05:40:42;;;;;;;6.63;2.70;;;4.20;96.30;;;;;;5032141;28;20025;-69
2021/04/17 05:43:08;;;;;;;6.15;3.40;;;4.20;96.00;;;;;;5045759;28;20025;-69
2021/04/17 05:45:34;;;;;;;6.55;3.00;;;4.30;96.00;;;;;;5033089;28;20116;-70
2021/04/17 05:47:59;;;;;;;7.55;2.67;;;4.30;95.70;;;;;;5025243;28;20049;-70
2021/04/17 05:50:25;;;;;;;8.00;3.33;;;4.20;95.80;;;;;;5034063;28;20025;-69
2021/04/17 05:52:51;;;;;;;7.25;3.00;;;4.30;95.30;;;;;;5045772;28;20033;-69
2021/04/17 05:55:17;;;;;;;6.32;2.40;;;4.20;96.10;;;;;;5043294;28;20033;-69
2021/04/17 05:57:42;;;;;;;8.60;2.88;;;4.30;95.90;;;;;;5036702;28;20459;-69
2021/04/17 06:00:09;;;;;;;10.18;3.72;;;4.10;96.80;;;;;;5045404;28;20028;-70
2021/04/17 06:02:35;;;;;;;8.55;3.78;;;4.10;96.70;;;;;;5038887;28;20048;-70
2021/04/17 06:05:00;;;;;;;5.45;2.55;;;4.20;96.70;;;;;;5028528;28;20373;-69
2021/04/17 06:07:26;;;;;;;5.65;3.28;;;4.10;97.20;;;;;;5045622;28;20021;-70
2021/04/17 06:09:52;;;;;;;6.05;3.20;;;4.20;96.80;;;;;;5048312;28;20511;-70
2021/04/17 06:12:17;;;;;;;7.50;3.08;;;4.30;97.10;;;;;;5044094;28;20471;-70
2021/04/17 06:14:43;;;;;;;6.40;3.58;;;4.40;97.40;;;;;;5044814;28;20099;-70
2021/04/17 06:17:09;;;;;;;5.82;2.65;;;4.50;97.60;;;;;;5034348;28;20055;-70
2021/04/17 06:19:35;;;;;;;9.85;3.13;;;4.60;97.70;;;;;;5044327;28;20057;-69
2021/04/17 06:22:00;;;;;;;5.10;2.83;;;4.70;96.70;;;;;;5032369;28;20036;-70
2021/04/17 06:24:26;;;;;;;11.45;2.85;;;4.80;96.80;;;;;;5028526;28;20019;-70
2021/04/17 06:26:52;;;;;;;6.78;3.30;;;5.00;96.00;;;;;;5033654;28;20053;-70
2021/04/17 06:29:18;;;;;;;4.85;2.42;;;5.20;96.40;;;;;;5024768;28;20045;-69
2021/04/17 06:31:43;;;;;;;6.03;2.95;;;5.10;95.70;;;;;;5029168;28;20483;-70
2021/04/17 06:34:09;;;;;;;6.22;2.50;;;5.40;95.10;;;;;;5022676;28;20038;-70
2021/04/17 06:36:35;;;;;;;5.60;2.55;;;5.60;94.20;;;;;;5027257;28;20033;-70
2021/04/17 06:39:01;;;;;;;5.45;2.85;;;6.00;94.10;;;;;;5036327;28;20029;-71
2021/04/17 06:41:30;;;;;;;6.15;2.72;;;6.30;94.00;;;;;;5025840;28;20057;-69
2021/04/17 06:43:57;;;;;;;8.05;3.42;;;6.80;93.60;;;;;;5024152;28;20026;-70
2021/04/17 06:46:24;;;;;;;4.57;2.85;;;7.40;92.90;;;;;;5023997;28;20113;-69
2021/04/17 06:48:50;;;;;;;6.22;3.10;;;7.90;92.40;;;;;;5025178;28;20029;-70
2021/04/17 06:51:18;;;;;;;5.25;2.90;;;9.40;91.20;;;;;;5027988;28;20034;-70
2021/04/17 06:53:45;;;;;;;4.72;2.60;;;10.20;86.90;;;;;;5024405;28;20032;-70
2021/04/17 06:56:12;;;;;;;6.38;3.40;;;11.20;83.10;;;;;;5023934;28;20064;-71
2021/04/17 06:58:39;;;;;;;6.18;3.15;;;11.90;81.40;;;;;;5039556;28;20029;-70
2021/04/17 07:01:05;;;;;;;8.05;3.20;;;12.50;78.40;;;;;;5032110;28;20064;-70
2021/04/17 07:03:31;;;;;;;8.88;3.25;;;13.20;76.40;;;;;;5023695;28;20108;-70
2021/04/17 07:05:57;;;;;;;8.13;2.95;;;14.20;72.30;;;;;;5033810;28;20518;-70
2021/04/17 07:08:23;;;;;;;5.60;3.10;;;14.20;68.40;;;;;;5041294;28;20052;-70
2021/04/17 07:10:49;;;;;;;5.93;3.20;;;14.40;68.50;;;;;;5033952;28;20046;-71
2021/04/17 07:13:16;;;;;;;5.72;3.13;;;14.80;66.90;;;;;;5023804;28;20033;-70
2021/04/17 07:15:43;;;;;;;5.75;2.75;;;15.10;66.50;;;;;;5023806;28;20029;-70
2021/04/17 07:18:28;;;;;;;5.45;2.65;;;15.20;65.40;;;;;;5023161;28;20041;-70
2021/04/17 07:20:54;;;;;;;;;;;14.00;65.20;;;;;;5024174;28;20029;-70
2021/04/17 07:23:31;;;;;;;6.60;2.78;;;15.00;64.10;;;;;;5029045;28;19913;-70
2021/04/17 07:26:16;;;;;;;6.28;3.25;;;15.30;63.80;;;;;;5026060;28;20033;-70
2021/04/17 07:28:59;;;;;;;7.07;3.45;;;16.30;63.40;;;;;;5023762;28;20036;-69
2021/04/17 07:31:27;;;;;;;5.20;2.92;;;15.00;63.20;;;;;;5026011;28;20048;-70
2021/04/17 07:33:54;;;;;;;4.75;2.90;;;13.80;64.60;;;;;;5041699;28;20379;-70
2021/04/17 07:36:22;;;;;;;5.32;3.03;;;11.40;67.70;;;;;;5034200;28;20048;-70
2021/04/17 07:38:48;;;;;;;6.43;2.95;;;9.80;71.00;;;;;;5012754;28;20574;-70
2021/04/17 07:41:19;;;;;;;11.18;3.38;;;8.70;72.80;;;;;;5014035;28;20029;-70
2021/04/17 07:43:59;;;;;;;5.97;2.85;;;8.20;74.60;;;;;;5016789;28;20036;-70
2021/04/17 07:46:26;;;;;;;6.93;2.97;;;8.10;74.30;;;;;;5013792;28;20565;-68
2021/04/17 07:49:10;;;;;;;6.97;2.47;;;8.10;74.50;;;;;;5010104;28;20091;-69
2021/04/17 07:51:56;;;;;;;5.78;2.90;;;8.20;75.30;;;;;;5016172;28;20691;-69
2021/04/17 07:54:22;;;;;;;6.00;3.00;;;8.10;75.50;;;;;;5022179;28;20033;-69
2021/04/17 07:56:48;;;;;;;7.10;3.65;;;8.00;72.00;;;;;;5023459;28;20033;-71
2021/04/17 07:59:18;;;;;;;12.48;2.63;;;8.20;74.00;;;;;;5018103;28;20660;-69
2021/04/17 08:01:44;;;;;;;4.72;2.80;;;8.20;73.40;;;;;;5014640;28;20017;-69
2021/04/17 08:04:11;;;;;;;5.68;2.60;;;8.20;72.30;;;;;;5015998;28;20492;-69
2021/04/17 08:06:38;;;;;;;6.68;3.25;;;8.10;72.70;;;;;;5017506;28;20167;-68
2021/04/17 08:09:07;;;;;;;4.38;2.70;;;8.10;72.10;;;;;;5014117;28;20081;-71
2021/04/17 08:11:33;;;;;;;5.78;3.28;;;8.20;72.20;;;;;;5018524;28;20041;-69
2021/04/17 08:13:59;;;;;;;6.50;3.35;;;8.10;71.60;;;;;;5023219;28;20041;-70
2021/04/17 08:16:25;;;;;;;5.45;3.20;;;8.20;72.80;;;;;;5014241;28;20033;-70
2021/04/17 08:18:51;;;;;;;5.82;3.17;;;8.20;71.50;;;;;;5013681;28;20376;-70
2021/04/17 08:21:19;;;;;;;6.97;3.10;;;8.40;71.70;;;;;;5015658;28;20045;-68
2021/04/17 08:23:49;;;;;;;7.05;3.35;;;9.40;71.70;;;;;;5013150;28;20687;-69
2021/04/17 08:26:15;;;;;;;6.53;3.30;;;9.10;72.90;;;;;;5015938;28;20034;-70
2021/04/17 08:28:46;;;;;;;5.63;3.15;;;8.70;72.50;;;;;;5017849;28;20029;-69
2021/04/17 08:31:22;;;;;;;9.23;4.15;;;8.70;73.00;;;;;;5014591;28;20119;-70
2021/04/17 08:34:09;;;;;;;8.57;3.03;;;8.70;75.10;;;;;;5023468;28;20026;-70
2021/04/17 08:37:05;;;;;;;5.20;2.70;;;8.80;73.70;;;;;;5019790;28;20054;-70
2021/04/17 08:39:36;;;;;;;9.00;3.00;;;9.00;72.00;;;;;;5014158;28;20577;-69
2021/04/17 08:42:03;;;;;;;12.50;3.58;;;11.50;70.70;;;;;;5016579;28;20103;-69
2021/04/17 08:44:32;;;;;;;6.07;3.47;;;13.20;68.60;;;;;;5014631;28;20721;-69
2021/04/17 08:46:58;;;;;;;6.18;3.15;;;13.40;67.30;;;;;;5021602;28;20629;-69
2021/04/17 08:49:30;;;;;;;7.60;3.38;;;13.80;63.90;;;;;;5015586;28;20064;-70
2021/04/17 08:52:24;;;;;;;5.35;3.47;;;14.40;63.30;;;;;;5014002;28;20036;-69
2021/04/17 08:54:59;;;;;;;6.20;3.33;;;14.10;63.30;;;;;;5013547;28;20622;-70
2021/04/17 08:57:25;;;;;;;8.68;3.97;;;14.50;61.20;;;;;;5022978;28;20043;-69
2021/04/17 08:59:59;;;;;;;6.47;3.45;;;15.00;62.20;;;;;;5016198;28;20040;-70
2021/04/17 09:02:27;;;;;;;6.30;3.28;;;14.70;62.60;;;;;;5015960;28;20067;-70
2021/04/17 09:05:05;;;;;;;6.32;3.33;;;13.90;64.90;;;;;;5014907;28;20021;-70
2021/04/17 09:07:32;;;;;;;6.22;3.22;;;14.00;62.70;;;;;;5032442;28;20025;-69
2021/04/17 09:10:23;;;;;;;5.68;3.05;;;13.80;63.70;;;;;;5046741;28;20124;-70
2021/04/17 09:13:09;;;;;;;7.03;3.35;;;14.40;63.60;;;;;;5014242;28;20386;-69
2021/04/17 09:15:50;;;;;;;4.88;3.08;;;13.70;64.30;;;;;;5014749;28;20131;-70
2021/04/17 09:18:37;;;;;;;6.68;3.08;;;12.30;63.90;;;;;;5013816;28;20360;-70
2021/04/17 09:21:09;;;;;;;6.88;3.22;;;12.10;64.40;;;;;;5021505;28;20044;-69
2021/04/17 09:23:50;;;;;;;13.00;4.00;;;12.20;64.20;;;;;;5015548;28;20149;-70
2021/04/17 09:26:31;;;;;;;7.35;3.97;;;12.30;62.70;;;;;;5042523;28;20602;-70
2021/04/17 09:28:59;;;;;;;7.38;3.20;;;11.70;60.40;;;;;;5046529;28;20055;-70
2021/04/17 09:31:26;;;;;;;5.80;3.55;;;11.40;62.30;;;;;;5046546;28;20116;-69
2021/04/17 09:34:06;;;;;;;7.63;2.97;;;11.10;62.00;;;;;;5016450;28;20037;-69
2021/04/17 09:36:32;;;;;;;6.03;3.10;;;11.00;60.60;;;;;;5013192;28;20052;-69
2021/04/17 09:38:59;;;;;;;5.55;2.85;;;11.30;60.10;;;;;;5015121;28;20078;-69
2021/04/17 09:41:45;;;;;;;6.15;3.15;;;11.60;60.80;;;;;;5014629;28;20075;-70
2021/04/17 09:44:12;;;;;;;8.05;3.85;;;11.90;62.50;;;;;;5018622;28;20048;-70
2021/04/17 09:46:38;;;;;;;5.90;3.42;;;11.90;62.80;;;;;;5013487;28;20029;-70
2021/04/17 09:49:04;;;;;;;6.60;3.05;;;12.30;62.50;;;;;;5013307;28;20029;-70
2021/04/17 09:51:29;;;;;;;9.13;3.10;;;12.10;61.60;;;;;;5012750;28;20032;-69
2021/04/17 09:54:06;;;;;;;8.63;3.05;;;12.40;62.60;;;;;;5022366;28;20075;-69
2021/04/17 09:56:33;;;;;;;4.68;2.65;;;12.60;58.60;;;;;;5018341;28;20371;-69
2021/04/17 09:59:06;;;;;;;7.78;2.85;;;12.40;58.90;;;;;;5013709;28;20037;-69
2021/04/17 10:01:32;;;;;;;7.38;3.55;;;12.40;56.70;;;;;;5013640;28;20154;-69
2021/04/17 10:04:01;;;;;;;8.07;3.13;;;12.30;57.80;;;;;;5018900;28;20036;-70
2021/04/17 10:06:31;;;;;;;6.78;3.03;;;12.30;59.30;;;;;;5012816;28;20666;-70
2021/04/17 10:09:11;;;;;;;7.18;2.92;;;12.30;58.50;;;;;;5017312;28;20059;-69
2021/04/17 10:11:42;;;;;;;4.70;2.55;;;12.80;60.80;;;;;;5011429;28;20045;-69
2021/04/17 10:14:10;;;;;;;4.70;2.90;;;13.10;60.00;;;;;;5017858;28;20057;-69
2021/04/17 10:16:41;;;;;;;5.57;3.13;;;13.30;60.10;;;;;;5012675;28;20028;-69
2021/04/17 10:19:14;;;;;;;6.05;3.17;;;12.70;57.40;;;;;;5012090;28;20037;-69
2021/04/17 10:21:41;;;;;;;5.50;3.07;;;12.90;60.00;;;;;;5012496;28;20041;-69
2021/04/17 10:24:23;;;;;;;5.70;3.28;;;13.00;58.90;;;;;;5018534;28;20471;-70
2021/04/17 10:27:07;;;;;;;4.85;2.80;;;12.80;59.60;;;;;;5013861;28;20036;-70
2021/04/17 10:29:53;;;;;;;14.57;3.72;;;13.00;59.00;;;;;;5012813;28;20037;-69
2021/04/17 10:32:21;;;;;;;4.97;2.67;;;12.90;57.60;;;;;;5012370;28;20053;-69
2021/04/17 10:34:50;;;;;;;6.28;3.15;;;13.20;58.30;;;;;;5018721;28;20047;-70
2021/04/17 10:37:21;;;;;;;7.10;2.92;;;13.10;56.80;;;;;;5028377;28;20061;-69
2021/04/17 10:39:57;;;;;;;6.82;3.15;;;13.40;56.80;;;;;;5024180;28;20025;-69
2021/04/17 10:42:23;;;;;;;6.78;2.50;;;13.50;56.50;;;;;;5030593;28;20041;-70
2021/04/17 10:44:54;;;;;;;4.75;2.55;;;14.10;57.50;;;;;;5032517;28;20029;-71
2021/04/17 10:47:20;;;;;;;9.38;3.25;;;14.10;57.60;;;;;;5022368;28;20120;-71
2021/04/17 10:49:46;;;;;;;7.72;3.15;;;14.00;55.70;;;;;;5012550;28;20037;-70
2021/04/17 10:52:30;;;;;;;8.05;3.50;;;13.90;54.10;;;;;;5013245;28;20055;-69
2021/04/17 10:54:57;;;;;;;4.70;2.60;;;13.50;52.30;;;;;;5012236;28;20033;-70
2021/04/17 10:57:23;;;;;;;4.10;2.30;;;13.60;53.90;;;;;;5019920;28;20033;-72
2021/04/17 10:59:58;;;;;;;6.07;2.92;;;13.80;53.80;;;;;;5010774;28;20017;-71
2021/04/17 11:02:34;;;;;;;7.18;2.40;;;13.90;54.30;;;;;;5012102;28;20132;-70
2021/04/17 11:05:03;;;;;;;4.72;2.88;;;14.10;54.80;;;;;;5039114;28;20047;-69
2021/04/17 11:07:47;;;;;;;8.65;2.92;;;13.80;51.80;;;;;;5012311;28;20025;-70
2021/04/17 11:10:12;;;;;;;5.10;2.10;;;14.10;53.70;;;;;;5012941;28;20527;-70
2021/04/17 11:12:39;;;;;;;6.15;3.00;;;14.60;55.50;;;;;;5017832;28;20072;-70
2021/04/17 11:15:26;;;;;;;4.53;2.00;;;14.80;55.80;;;;;;5011208;28;20735;-70
2021/04/17 11:18:32;;;;;;;4.63;2.55;;;15.00;52.30;;;;;;5011902;28;20034;-70
2021/04/17 11:21:05;;;;;;;4.90;2.42;;;14.80;49.60;;;;;;5013234;28;20123;-69
2021/04/17 11:23:32;;;;;;;5.18;2.50;;;15.10;52.10;;;;;;5017403;28;21398;-69
2021/04/17 11:26:14;;;;;;;7.82;3.97;;;15.30;50.70;;;;;;5010604;28;20041;-70
2021/04/17 11:28:44;;;;;;;3.58;1.92;;;15.30;51.40;;;;;;5010903;28;20021;-70
2021/04/17 11:31:11;;;;;;;4.40;2.33;;;15.50;49.80;;;;;;5012329;28;20030;-71
2021/04/17 11:33:37;;;;;;;4.88;2.08;;;15.60;50.00;;;;;;5016826;28;20143;-72
2021/04/17 11:36:04;;;;;;;3.88;1.90;;;15.40;46.50;;;;;;5013317;28;20057;-70
2021/04/17 11:38:30;;;;;;;5.10;1.90;;;15.50;47.30;;;;;;5013241;28;20422;-70
2021/04/17 11:40:56;;;;;;;5.82;2.38;;;15.70;48.40;;;;;;5013050;28;20503;-70
2021/04/17 11:43:22;;;;;;;5.15;2.55;;;15.50;49.20;;;;;;5018080;28;20540;-70
2021/04/17 11:45:49;;;;;;;5.07;2.63;;;15.30;49.10;;;;;;5011045;28;20055;-70
2021/04/17 11:48:15;;;;;;;5.53;2.70;;;15.00;45.90;;;;;;5014634;28;20030;-70
2021/04/17 11:50:41;;;;;;;5.50;2.10;;;15.60;51.70;;;;;;5012511;28;20033;-71
2021/04/17 11:53:07;;;;;;;7.57;2.50;;;15.70;50.10;;;;;;5021902;28;20095;-69
2021/04/17 11:55:32;;;;;;;3.80;2.38;;;15.70;50.20;;;;;;5012020;28;20028;-70
2021/04/17 11:57:58;;;;;;;4.43;2.03;;;15.70;51.20;;;;;;5010694;28;20024;-69
2021/04/17 12:00:24;;;;;;;5.05;2.55;;;16.00;49.70;;;;;;5010158;28;20504;-70
2021/04/17 12:02:50;;;;;;;3.08;1.60;;;16.00;51.60;;;;;;5010504;28;20033;-70
2021/04/17 12:05:16;;;;;;;4.80;2.25;;;16.10;50.50;;;;;;5013885;28;20075;-70
2021/04/17 12:07:41;;;;;;;3.83;1.65;;;16.20;49.80;;;;;;5011380;28;20048;-71
2021/04/17 12:10:08;;;;;;;4.50;2.28;;;16.20;48.80;;;;;;5012211;28;20037;-70
2021/04/17 12:12:34;;;;;;;4.22;2.13;;;16.20;48.40;;;;;;5009729;28;20045;-70
2021/04/17 12:15:00;;;;;;;3.70;2.03;;;16.00;46.20;;;;;;5010395;28;20025;-69
2021/04/17 12:17:26;;;;;;;4.18;1.90;;;16.10;47.60;;;;;;5010239;28;20036;-69
2021/04/17 12:19:52;;;;;;;3.15;1.65;;;16.10;46.50;;;;;;5020475;28;20029;-69
2021/04/17 12:22:18;;;;;;;3.72;2.22;;;16.00;46.60;;;;;;5022076;28;20053;-70
2021/04/17 12:24:43;;;;;;;5.63;1.70;;;16.20;47.80;;;;;;5029491;28;20013;-69
2021/04/17 12:27:09;;;;;;;4.28;1.48;;;16.20;46.30;;;;;;5032595;28;20040;-69
2021/04/17 12:29:35;;;;;;;4.20;1.70;;;16.20;43.80;;;;;;5026481;28;20124;-71
2021/04/17 12:32:01;;;;;;;3.22;1.58;;;15.90;45.80;;;;;;5009961;28;20127;-70
2021/04/17 12:34:27;;;;;;;2.78;1.40;;;16.00;44.50;;;;;;5009368;28;20029;-69
2021/04/17 12:36:52;;;;;;;3.95;1.90;;;16.20;48.30;;;;;;5013760;28;20037;-70
2021/04/17 12:39:18;;;;;;;4.70;1.95;;;16.00;46.50;;;;;;5016346;28;20420;-70
2021/04/17 12:41:44;;;;;;;3.80;1.95;;;16.30;48.70;;;;;;5020056;28;20032;-69
2021/04/17 12:44:10;;;;;;;6.88;2.05;;;16.20;49.70;;;;;;5013319;28;20091;-70
2021/04/17 12:46:40;;;;;;;4.95;1.85;;;16.10;48.20;;;;;;5012443;28;20597;-70
2021/04/17 12:49:06;;;;;;;5.38;1.98;;;16.10;46.20;;;;;;5013598;28;20140;-70
2021/04/17 12:51:33;;;;;;;3.55;1.85;;;16.00;47.70;;;;;;5018093;28;20055;-69
2021/04/17 12:53:59;;;;;;;4.00;1.63;;;15.80;49.70;;;;;;5013125;28;20021;-70
2021/04/17 12:56:25;;;;;;;3.33;1.92;;;15.50;41.70;;;;;;5013026;28;20053;-69
2021/04/17 12:58:54;;;;;;;3.75;2.00;;;15.70;43.70;;;;;;5011856;28;20040;-70
2021/04/17 13:01:20;;;;;;;3.90;1.80;;;15.70;44.70;;;;;;5018865;28;20565;-69